createdAt,value
2023-03-03T00:00:26.889Z,66.75
2023-03-03T00:02:59.100Z,63.83
2023-03-03T00:05:29.435Z,40.17
2023-03-03T00:08:00.418Z,39.80
2023-03-03T00:10:31.342Z,40.17
2023-03-03T00:13:02.025Z,41.20
2023-03-03T00:15:33.996Z,41.20
2023-03-03T00:18:13.065Z,42.33
2023-03-03T00:20:43.241Z,43.35
2023-03-03T00:23:31.254Z,42.70
2023-03-03T00:26:02.346Z,44.90
2023-03-03T00:28:53.756Z,41.25
2023-03-03T00:31:36.738Z,41.35
2023-03-03T00:34:30.155Z,42.05
2023-03-03T00:37:01.304Z,41.22
2023-03-03T00:39:40.322Z,41.63
2023-03-03T00:42:19.914Z,42.97
2023-03-03T00:45:01.779Z,41.08
2023-03-03T00:47:45.448Z,38.83
2023-03-03T00:50:30.056Z,39.40
2023-03-03T00:53:27.447Z,39.17
2023-03-03T00:55:58.393Z,37.75
2023-03-03T00:58:29.804Z,39.50
2023-03-03T01:01:00.397Z,39.13
2023-03-03T01:03:41.228Z,38.85
2023-03-03T01:06:12.753Z,38.50
2023-03-03T01:08:43.180Z,38.50
2023-03-03T01:11:24.154Z,37.40
2023-03-03T01:13:55.045Z,38.03
2023-03-03T01:16:25.469Z,38.75
2023-03-03T01:18:56.046Z,36.25
2023-03-03T01:21:26.552Z,37.22
2023-03-03T01:23:57.103Z,37.72
2023-03-03T01:26:27.716Z,37.10
2023-03-03T01:28:58.146Z,36.50
2023-03-03T01:31:28.989Z,36.80
2023-03-03T01:33:59.131Z,36.47
2023-03-03T01:36:30.889Z,37.90
2023-03-03T01:39:01.621Z,37.28
2023-03-03T01:41:35.093Z,36.97
2023-03-03T01:44:05.684Z,37.35
2023-03-03T01:47:15.162Z,36.97
2023-03-03T01:50:06.475Z,36.20
2023-03-03T01:52:41.480Z,38.05
2023-03-03T01:55:25.044Z,37.35
2023-03-03T01:58:05.023Z,36.22
2023-03-03T02:00:36.710Z,38.15
2023-03-03T02:03:07.869Z,35.72
2023-03-03T02:05:39.357Z,47.88
2023-03-03T02:08:11.892Z,37.63
2023-03-03T02:10:43.286Z,35.60
2023-03-03T02:13:14.044Z,34.85
2023-03-03T02:15:44.429Z,35.55
2023-03-03T02:18:20.970Z,36.83
2023-03-03T02:21:13.322Z,37.13
2023-03-03T02:24:08.565Z,36.55
2023-03-03T02:26:42.728Z,35.75
2023-03-03T02:29:13.973Z,43.33
2023-03-03T02:31:45.529Z,36.75
2023-03-03T02:34:17.500Z,36.40
2023-03-03T02:36:47.707Z,36.05
2023-03-03T02:39:28.919Z,36.50
2023-03-03T02:42:28.012Z,36.03
2023-03-03T02:45:00.834Z,36.47
2023-03-03T02:47:32.094Z,37.47
2023-03-03T02:50:02.675Z,38.30
2023-03-03T02:52:33.285Z,37.90
2023-03-03T02:55:03.559Z,38.88
2023-03-03T02:57:34.339Z,37.33
2023-03-03T03:00:04.591Z,38.33
2023-03-03T03:02:36.013Z,37.15
2023-03-03T03:05:07.547Z,34.58
2023-03-03T03:07:38.019Z,35.17
2023-03-03T03:10:09.300Z,36.85
2023-03-03T03:12:41.772Z,36.20
2023-03-03T03:15:13.967Z,36.45
2023-03-03T03:17:45.090Z,34.95
2023-03-03T03:20:15.721Z,34.03
2023-03-03T03:22:46.222Z,34.72
2023-03-03T03:25:17.092Z,34.90
2023-03-03T03:27:47.450Z,34.25
2023-03-03T03:30:17.805Z,35.55
2023-03-03T03:32:48.724Z,33.75
2023-03-03T03:35:19.166Z,35.70
2023-03-03T03:37:49.840Z,32.00
2023-03-03T03:40:21.054Z,33.33
2023-03-03T03:42:51.081Z,32.00
2023-03-03T03:45:21.919Z,32.38
2023-03-03T03:47:52.806Z,30.77
2023-03-03T03:50:22.968Z,29.52
2023-03-03T03:52:53.123Z,30.25
2023-03-03T03:55:24.402Z,30.52
2023-03-03T03:57:55.480Z,29.88
2023-03-03T04:00:26.456Z,31.00
2023-03-03T04:03:01.456Z,32.00
2023-03-03T04:05:32.072Z,30.13
2023-03-03T04:08:02.533Z,30.35
2023-03-03T04:10:32.724Z,28.67
2023-03-03T04:13:03.034Z,30.27
2023-03-03T04:15:33.737Z,30.35
2023-03-03T04:18:05.585Z,29.58
2023-03-03T04:20:35.884Z,30.35
2023-03-03T04:23:06.365Z,33.83
2023-03-03T04:25:37.414Z,36.58
2023-03-03T04:28:15.895Z,34.67
2023-03-03T04:30:47.409Z,34.58
2023-03-03T04:33:19.784Z,30.27
2023-03-03T04:35:50.515Z,29.08
2023-03-03T04:38:21.091Z,29.08
2023-03-03T04:40:52.458Z,27.48
2023-03-03T04:43:23.569Z,28.83
2023-03-03T04:45:56.274Z,28.65
2023-03-03T04:48:26.829Z,30.08
2023-03-03T04:50:57.416Z,28.33
2023-03-03T04:53:27.865Z,30.08
2023-03-03T04:55:59.517Z,30.80
2023-03-03T04:58:30.054Z,28.02
2023-03-03T05:01:00.946Z,28.85
2023-03-03T05:03:33.179Z,28.67
2023-03-03T05:06:03.884Z,28.30
2023-03-03T05:08:34.449Z,27.23
2023-03-03T05:11:07.449Z,26.95
2023-03-03T05:13:38.044Z,26.77
2023-03-03T05:16:08.705Z,27.23
2023-03-03T05:18:39.093Z,26.75
2023-03-03T05:21:09.386Z,26.17
2023-03-03T05:23:39.883Z,26.25
2023-03-03T05:26:10.332Z,25.60
2023-03-03T05:28:40.427Z,25.15
2023-03-03T05:31:10.762Z,25.77
2023-03-03T05:33:41.235Z,26.75
2023-03-03T05:36:12.068Z,27.08
2023-03-03T05:38:42.208Z,25.05
2023-03-03T05:41:12.635Z,25.30
2023-03-03T05:43:43.302Z,26.30
2023-03-03T05:46:13.887Z,25.52
2023-03-03T05:48:44.696Z,27.23
2023-03-03T05:51:15.223Z,26.35
2023-03-03T05:53:45.972Z,25.50
2023-03-03T05:56:16.500Z,26.13
2023-03-03T05:58:47.528Z,26.23
2023-03-03T06:01:18.604Z,24.75
2023-03-03T06:03:48.733Z,28.10
2023-03-03T06:06:20.798Z,32.63
2023-03-03T06:08:50.986Z,30.85
2023-03-03T06:11:21.928Z,30.27
2023-03-03T06:13:52.494Z,25.95
2023-03-03T06:16:23.129Z,25.48
2023-03-03T06:18:53.555Z,25.63
2023-03-03T06:21:24.066Z,26.73
2023-03-03T06:23:54.568Z,24.55
2023-03-03T06:26:25.338Z,26.25
2023-03-03T06:28:56.852Z,26.15
2023-03-03T06:31:27.524Z,27.65
2023-03-03T06:33:58.225Z,25.48
2023-03-03T06:36:28.824Z,26.13
2023-03-03T06:38:59.222Z,25.77
2023-03-03T06:41:29.392Z,25.73
2023-03-03T06:44:01.834Z,26.58
2023-03-03T06:46:32.913Z,24.73
2023-03-03T06:49:03.097Z,24.25
2023-03-03T06:51:44.166Z,24.63
2023-03-03T06:54:19.873Z,24.98
2023-03-03T06:56:51.482Z,24.58
2023-03-03T06:59:23.608Z,24.95
2023-03-03T07:01:54.420Z,25.83
2023-03-03T07:04:35.126Z,25.80
2023-03-03T07:07:24.305Z,26.60
2023-03-03T07:09:57.050Z,25.20
2023-03-03T07:12:31.156Z,24.65
2023-03-03T07:15:23.322Z,25.13
2023-03-03T07:17:59.882Z,24.88
2023-03-03T07:20:38.462Z,25.20
2023-03-03T07:23:43.915Z,24.75
2023-03-03T07:26:35.120Z,25.23
2023-03-03T07:29:29.456Z,24.45
2023-03-03T07:32:01.204Z,23.83
2023-03-03T07:34:52.321Z,25.55
2023-03-03T07:37:37.571Z,24.92
2023-03-03T07:40:47.057Z,25.17
2023-03-03T07:43:40.122Z,25.02
2023-03-03T07:46:47.208Z,25.83
2023-03-03T07:49:38.404Z,25.73
2023-03-03T07:52:47.752Z,24.13
2023-03-03T07:55:38.862Z,23.75
2023-03-03T07:58:46.863Z,22.23
2023-03-03T08:01:56.881Z,22.55
2023-03-03T08:04:52.371Z,22.65
2023-03-03T08:07:25.195Z,23.02
2023-03-03T08:10:02.304Z,21.92
2023-03-03T08:12:54.142Z,22.67
2023-03-03T08:15:27.300Z,22.48
2023-03-03T08:17:58.567Z,23.65
2023-03-03T08:20:47.025Z,22.85
2023-03-03T08:23:18.814Z,22.60
2023-03-03T08:25:50.947Z,23.60
2023-03-03T08:28:22.071Z,23.90
2023-03-03T08:31:00.035Z,23.00
2023-03-03T08:33:35.912Z,22.98
2023-03-03T08:36:09.998Z,22.17
2023-03-03T08:38:41.051Z,22.55
2023-03-03T08:41:11.615Z,24.08
2023-03-03T08:43:42.174Z,22.42
2023-03-03T08:46:13.378Z,22.67
2023-03-03T08:48:43.962Z,22.35
2023-03-03T08:51:14.122Z,23.35
2023-03-03T08:53:44.305Z,21.98
2023-03-03T08:56:14.717Z,22.00
2023-03-03T08:59:01.844Z,21.98
2023-03-03T09:01:36.737Z,23.60
2023-03-03T09:04:07.053Z,22.33
2023-03-03T09:06:37.239Z,23.15
2023-03-03T09:09:08.064Z,23.00
2023-03-03T09:11:38.639Z,33.88
2023-03-03T09:14:17.856Z,31.52
2023-03-03T09:16:53.452Z,34.75
2023-03-03T09:19:35.455Z,23.27
2023-03-03T09:22:22.648Z,25.20
2023-03-03T09:25:00.077Z,25.38
2023-03-03T09:27:33.126Z,24.48
2023-03-03T09:30:37.605Z,23.80
2023-03-03T09:33:29.897Z,25.77
2023-03-03T09:36:25.395Z,24.55
2023-03-03T09:38:57.712Z,26.13
2023-03-03T09:42:06.923Z,25.00
2023-03-03T09:45:16.713Z,26.00
2023-03-03T09:48:16.331Z,25.35
2023-03-03T09:51:20.028Z,35.15
2023-03-03T09:54:23.629Z,33.78
2023-03-03T09:57:33.152Z,25.98
2023-03-03T10:00:21.846Z,26.30
2023-03-03T10:03:23.974Z,27.75
2023-03-03T10:06:33.608Z,28.80
2023-03-03T10:09:43.804Z,27.33
2023-03-03T10:12:48.501Z,28.08
2023-03-03T10:15:48.460Z,29.35
2023-03-03T10:18:44.167Z,29.05
2023-03-03T10:21:29.812Z,27.85
2023-03-03T10:24:29.996Z,28.90
2023-03-03T10:27:32.369Z,28.05
2023-03-03T10:30:51.542Z,28.40
2023-03-03T10:34:12.003Z,27.88
2023-03-03T10:37:21.339Z,29.38
2023-03-03T10:40:31.665Z,28.55
2023-03-03T10:43:32.423Z,29.33
2023-03-03T10:46:40.341Z,28.35
2023-03-03T10:49:49.771Z,28.48
2023-03-03T10:52:35.389Z,28.40
2023-03-03T10:55:28.527Z,28.80
2023-03-03T10:58:38.326Z,28.85
2023-03-03T11:01:28.711Z,30.52
2023-03-03T11:04:19.433Z,29.83
2023-03-03T11:07:05.872Z,30.00
2023-03-03T11:09:59.602Z,30.40
2023-03-03T11:13:12.741Z,30.02
2023-03-03T11:16:08.439Z,29.20
2023-03-03T11:19:16.777Z,31.27
2023-03-03T11:21:55.671Z,31.40
2023-03-03T11:25:05.153Z,30.17
2023-03-03T11:28:08.247Z,33.97
2023-03-03T11:31:18.667Z,40.20
2023-03-03T11:34:08.550Z,40.80
2023-03-03T11:36:55.659Z,30.77
2023-03-03T11:39:30.732Z,33.35
2023-03-03T11:42:24.450Z,33.65
2023-03-03T11:45:13.472Z,35.58
2023-03-03T11:48:08.400Z,36.65
2023-03-03T11:50:48.453Z,38.63
2023-03-03T11:53:58.072Z,38.80
2023-03-03T11:56:48.788Z,44.50
2023-03-03T11:59:47.870Z,48.95
2023-03-03T12:02:57.825Z,60.00
2023-03-03T12:05:48.517Z,52.78
2023-03-03T12:08:58.485Z,51.88
2023-03-03T12:12:08.141Z,60.65
2023-03-03T12:15:20.966Z,62.63
2023-03-03T12:18:18.295Z,55.28
2023-03-03T12:21:14.781Z,67.07
2023-03-03T12:23:58.323Z,136.23
2023-03-03T12:27:07.645Z,93.88
2023-03-03T12:29:52.838Z,151.27
2023-03-03T12:32:48.156Z,98.05
2023-03-03T12:35:52.113Z,111.72
2023-03-03T12:39:01.672Z,99.18
2023-03-03T12:41:48.058Z,96.38
2023-03-03T12:44:29.992Z,100.88
2023-03-03T12:47:30.873Z,100.80
2023-03-03T12:50:36.212Z,86.85
2023-03-03T12:53:35.028Z,78.80
2023-03-03T12:56:15.233Z,81.03
2023-03-03T12:59:18.005Z,81.05
2023-03-03T13:02:09.065Z,72.63
2023-03-03T13:05:03.492Z,81.65
2023-03-03T13:08:08.037Z,84.38
2023-03-03T13:10:51.103Z,72.38
2023-03-03T13:14:00.583Z,87.15
2023-03-03T13:16:46.347Z,64.13
2023-03-03T13:19:40.039Z,55.10
2023-03-03T13:22:39.900Z,49.35
2023-03-03T13:25:49.706Z,46.58
2023-03-03T13:28:42.856Z,46.75
2023-03-03T13:31:43.323Z,47.25
2023-03-03T13:34:30.114Z,45.55
2023-03-03T13:37:15.316Z,48.88
2023-03-03T13:40:05.002Z,50.13
2023-03-03T13:43:03.162Z,49.03
2023-03-03T13:46:12.591Z,46.40
2023-03-03T13:49:13.904Z,46.78
2023-03-03T13:52:09.553Z,46.63
2023-03-03T13:55:21.197Z,46.85
2023-03-03T13:58:19.749Z,48.17
2023-03-03T14:01:05.881Z,47.30
2023-03-03T14:04:05.574Z,46.58
2023-03-03T14:06:37.865Z,46.47
2023-03-03T14:09:37.908Z,46.58
2023-03-03T14:12:48.565Z,48.67
2023-03-03T14:15:33.189Z,49.75
2023-03-03T14:18:33.589Z,48.42
2023-03-03T14:21:21.501Z,46.50
2023-03-03T14:24:17.251Z,48.08
2023-03-03T14:26:53.947Z,48.60
2023-03-03T14:29:35.308Z,46.30
2023-03-03T14:32:43.026Z,47.67
2023-03-03T14:35:22.400Z,45.17
2023-03-03T14:37:53.057Z,46.28
2023-03-03T14:40:32.244Z,47.42
2023-03-03T14:43:07.020Z,47.50
2023-03-03T14:45:42.320Z,45.20
2023-03-03T14:48:22.165Z,43.65
2023-03-03T14:51:19.218Z,46.03
2023-03-03T14:53:51.592Z,43.58
2023-03-03T14:56:36.256Z,43.70
2023-03-03T14:59:28.613Z,43.40
2023-03-03T15:02:36.868Z,44.03
2023-03-03T15:05:33.863Z,43.20
2023-03-03T15:08:12.890Z,43.08
2023-03-03T15:10:48.027Z,43.45
2023-03-03T15:13:38.149Z,43.53
2023-03-03T15:16:24.009Z,42.85
2023-03-03T15:19:33.462Z,43.90
2023-03-03T15:22:42.748Z,42.35
2023-03-03T15:25:43.968Z,42.30
2023-03-03T15:28:40.044Z,42.67
2023-03-03T15:31:49.365Z,41.90
2023-03-03T15:35:01.470Z,53.92
2023-03-03T15:38:01.455Z,43.40
2023-03-03T15:40:55.096Z,42.65
2023-03-03T15:44:04.626Z,44.40
2023-03-03T15:47:09.511Z,64.72
2023-03-03T15:50:17.225Z,49.03
2023-03-03T15:53:26.759Z,50.33
2023-03-03T15:56:37.877Z,45.50
2023-03-03T15:59:49.058Z,45.90
2023-03-03T16:02:41.322Z,46.30
2023-03-03T16:05:30.350Z,48.88
2023-03-03T16:08:17.480Z,49.20
2023-03-03T16:11:26.891Z,55.08
2023-03-03T16:14:36.479Z,53.85
2023-03-03T16:17:32.309Z,50.78
2023-03-03T16:20:27.264Z,51.00
2023-03-03T16:23:16.128Z,51.05
2023-03-03T16:26:12.844Z,52.03
2023-03-03T16:29:09.518Z,53.65
2023-03-03T16:31:56.441Z,52.13
2023-03-03T16:34:57.411Z,53.35
2023-03-03T16:37:36.555Z,52.58
2023-03-03T16:40:23.354Z,52.85
2023-03-03T16:43:07.970Z,51.08
2023-03-03T16:45:42.780Z,51.45
2023-03-03T16:48:37.654Z,53.47
2023-03-03T16:51:30.987Z,54.28
2023-03-03T16:54:40.553Z,54.05
2023-03-03T16:57:33.006Z,52.88
2023-03-03T17:00:29.022Z,53.63
2023-03-03T17:03:26.595Z,54.50
2023-03-03T17:06:21.181Z,53.10
2023-03-03T17:09:33.216Z,56.30
2023-03-03T17:12:33.889Z,54.42
2023-03-03T17:15:31.803Z,54.08
2023-03-03T17:18:38.846Z,53.70
2023-03-03T17:21:35.271Z,53.70
2023-03-03T17:24:44.526Z,53.40
2023-03-03T17:27:39.568Z,54.97
2023-03-03T17:30:37.569Z,52.72
2023-03-03T17:33:44.006Z,54.40
2023-03-03T17:36:41.523Z,54.47
2023-03-03T17:39:39.631Z,53.63
2023-03-03T17:42:36.646Z,52.60
2023-03-03T17:45:18.502Z,53.08
2023-03-03T17:48:28.497Z,51.63
2023-03-03T17:51:22.652Z,51.03
2023-03-03T17:54:21.626Z,51.80
2023-03-03T17:57:30.933Z,51.95
2023-03-03T18:00:34.382Z,53.53
2023-03-03T18:03:43.920Z,50.88
2023-03-03T18:06:55.760Z,50.92
2023-03-03T18:10:04.950Z,50.95
2023-03-03T18:13:14.464Z,47.88
2023-03-03T18:16:12.845Z,47.67
2023-03-03T18:19:22.856Z,46.28
2023-03-03T18:22:32.602Z,46.83
2023-03-03T18:25:15.264Z,46.00
2023-03-03T18:28:09.299Z,43.15
2023-03-03T18:31:02.416Z,41.53
2023-03-03T18:33:45.511Z,43.63
2023-03-03T18:36:37.920Z,43.28
2023-03-03T18:39:15.777Z,42.65
2023-03-03T18:42:07.502Z,43.28
2023-03-03T18:44:37.737Z,44.08
2023-03-03T18:47:08.209Z,41.97
2023-03-03T18:50:10.806Z,42.92
2023-03-03T18:53:00.784Z,41.80
2023-03-03T18:55:31.391Z,42.03
2023-03-03T18:58:25.172Z,42.10
2023-03-03T19:01:35.118Z,43.55
2023-03-03T19:04:21.177Z,40.17
2023-03-03T19:07:28.521Z,42.65
2023-03-03T19:10:04.573Z,41.58
2023-03-03T19:12:55.839Z,39.10
2023-03-03T19:15:50.699Z,40.42
2023-03-03T19:18:29.518Z,40.40
2023-03-03T19:21:08.352Z,39.70
2023-03-03T19:24:05.943Z,40.65
2023-03-03T19:27:15.283Z,39.25
2023-03-03T19:30:25.174Z,39.17
2023-03-03T19:33:29.715Z,39.45
2023-03-03T19:36:25.988Z,39.17
2023-03-03T19:39:35.408Z,41.40
2023-03-03T19:42:35.792Z,40.92
2023-03-03T19:45:44.979Z,39.30
2023-03-03T19:48:54.774Z,39.83
2023-03-03T19:51:49.162Z,41.55
2023-03-03T19:54:55.737Z,41.13
2023-03-03T19:58:04.919Z,41.20
2023-03-03T20:01:01.257Z,41.88
2023-03-03T20:04:01.642Z,41.10
2023-03-03T20:06:57.914Z,42.72
2023-03-03T20:10:01.689Z,39.38
2023-03-03T20:13:05.137Z,41.25
2023-03-03T20:16:10.788Z,42.45
2023-03-03T20:19:04.841Z,44.55
2023-03-03T20:22:14.461Z,43.22
2023-03-03T20:25:23.632Z,44.50
2023-03-03T20:28:33.776Z,45.00
2023-03-03T20:31:38.063Z,44.75
2023-03-03T20:34:33.540Z,45.38
2023-03-03T20:37:40.244Z,46.45
2023-03-03T20:40:45.401Z,46.70
2023-03-03T20:43:56.321Z,45.38
2023-03-03T20:46:54.286Z,45.15
2023-03-03T20:50:03.434Z,44.90
2023-03-03T20:53:10.338Z,45.15
2023-03-03T20:56:19.564Z,45.33
2023-03-03T20:59:06.834Z,45.67
2023-03-03T21:01:55.160Z,45.42
2023-03-03T21:04:31.903Z,45.33
2023-03-03T21:07:05.744Z,45.75
2023-03-03T21:09:40.831Z,45.35
2023-03-03T21:12:31.702Z,46.47
2023-03-03T21:15:10.417Z,45.85
2023-03-03T21:17:40.570Z,45.30
2023-03-03T21:20:35.272Z,45.28
2023-03-03T21:23:05.833Z,42.85
2023-03-03T21:25:48.303Z,45.17
2023-03-03T21:28:30.339Z,44.42
2023-03-03T21:31:20.025Z,44.60
2023-03-03T21:33:54.363Z,44.60
2023-03-03T21:36:46.052Z,45.40
2023-03-03T21:39:25.873Z,45.10
2023-03-03T21:42:17.225Z,44.08
2023-03-03T21:44:54.133Z,52.20
2023-03-03T21:47:25.783Z,52.20
2023-03-03T21:49:56.312Z,44.05
2023-03-03T21:52:26.818Z,46.13
2023-03-03T21:54:57.355Z,44.22
2023-03-03T21:57:27.767Z,43.20
2023-03-03T21:59:58.790Z,43.42
2023-03-03T22:02:29.456Z,46.05
2023-03-03T22:05:00.160Z,41.13
2023-03-03T22:07:30.835Z,43.63
2023-03-03T22:10:01.221Z,44.13
2023-03-03T22:12:31.961Z,45.42
2023-03-03T22:15:02.445Z,42.80
2023-03-03T22:17:32.508Z,44.03
2023-03-03T22:20:02.930Z,43.35
2023-03-03T22:22:33.443Z,44.00
2023-03-03T22:25:04.828Z,43.90
2023-03-03T22:27:35.088Z,43.67
2023-03-03T22:30:06.018Z,44.08
2023-03-03T22:32:36.586Z,44.85
2023-03-03T22:35:07.259Z,45.10
2023-03-03T22:37:37.360Z,44.22
2023-03-03T22:40:08.723Z,43.63
2023-03-03T22:42:39.203Z,43.33
2023-03-03T22:45:11.676Z,43.88
2023-03-03T22:47:41.931Z,42.45
2023-03-03T22:50:13.008Z,42.53
2023-03-03T22:52:43.148Z,42.50
2023-03-03T22:55:13.991Z,43.70
2023-03-03T22:57:44.750Z,42.95
2023-03-03T23:00:16.720Z,42.85
2023-03-03T23:02:47.042Z,44.17
2023-03-03T23:05:17.519Z,42.20
2023-03-03T23:07:48.007Z,43.78
2023-03-03T23:10:19.261Z,44.90
2023-03-03T23:12:49.820Z,43.78
2023-03-03T23:15:20.076Z,45.75
2023-03-03T23:17:50.980Z,45.90
2023-03-03T23:20:26.492Z,47.58
2023-03-03T23:22:56.734Z,46.20
2023-03-03T23:25:27.829Z,44.90
2023-03-03T23:27:59.130Z,43.88
2023-03-03T23:30:29.636Z,53.92
2023-03-03T23:32:59.825Z,45.03
2023-03-03T23:35:30.088Z,44.47
2023-03-03T23:38:00.326Z,46.70
2023-03-03T23:40:30.630Z,48.33
2023-03-03T23:43:01.118Z,56.25
2023-03-03T23:45:31.700Z,51.83
2023-03-03T23:48:01.936Z,48.97
2023-03-03T23:50:34.768Z,48.05
2023-03-03T23:53:07.076Z,47.58
2023-03-03T23:55:39.110Z,41.65
2023-03-03T23:58:09.575Z,44.15
